createdAt,value
2018-01-28T00:08:29.332Z,-55
2018-01-28T00:18:29.452Z,-56
2018-01-28T00:28:29.334Z,-54
2018-01-28T00:38:29.284Z,-55
2018-01-28T00:48:29.387Z,-55
2018-01-28T00:58:29.276Z,-56
2018-01-28T01:08:29.303Z,-54
2018-01-28T01:18:29.388Z,-57
2018-01-28T01:28:29.240Z,-57
2018-01-28T01:38:29.349Z,-56
2018-01-28T01:48:29.305Z,-58
2018-01-28T01:58:29.361Z,-57
2018-01-28T02:08:29.302Z,-55
2018-01-28T02:18:29.753Z,-55
2018-01-28T02:28:29.367Z,-57
2018-01-28T02:38:29.393Z,-55
2018-01-28T02:48:29.341Z,-57
2018-01-28T02:58:29.417Z,-57
2018-01-28T03:08:29.434Z,-57
2018-01-28T03:18:29.395Z,-56
2018-01-28T03:28:29.422Z,-56
2018-01-28T03:38:29.352Z,-57
2018-01-28T03:48:29.442Z,-53
2018-01-28T03:58:29.442Z,-55
2018-01-28T04:08:29.541Z,-58
2018-01-28T04:18:29.438Z,-58
2018-01-28T04:28:29.508Z,-55
2018-01-28T04:38:29.440Z,-56
2018-01-28T04:48:29.530Z,-55
2018-01-28T04:58:29.477Z,-54
2018-01-28T05:08:29.548Z,-57
2018-01-28T05:18:29.490Z,-55
2018-01-28T05:28:29.454Z,-56
2018-01-28T05:38:29.522Z,-55
2018-01-28T05:48:29.463Z,-56
2018-01-28T05:58:29.481Z,-55
2018-01-28T06:08:29.514Z,-55
2018-01-28T06:18:30.014Z,-54
2018-01-28T06:28:29.567Z,-56
2018-01-28T06:38:29.600Z,-57
2018-01-28T06:48:29.571Z,-56
2018-01-28T06:58:29.690Z,-55
2018-01-28T07:08:29.559Z,-57
2018-01-28T07:18:29.666Z,-56
2018-01-28T07:28:29.680Z,-56
2018-01-28T07:38:29.556Z,-56
2018-01-28T07:48:29.689Z,-57
2018-01-28T07:58:29.581Z,-58
2018-01-28T08:08:29.659Z,-56
2018-01-28T08:18:29.605Z,-57
2018-01-28T08:28:29.676Z,-56
2018-01-28T08:38:29.661Z,-55
2018-01-28T08:48:29.721Z,-56
2018-01-28T08:58:29.655Z,-57
2018-01-28T09:08:29.715Z,-55
2018-01-28T09:18:29.716Z,-54
2018-01-28T09:28:29.753Z,-59
2018-01-28T09:38:29.895Z,-64
2018-01-28T09:48:29.948Z,-65
2018-01-28T09:58:29.883Z,-62
2018-01-28T10:08:29.832Z,-64
2018-01-28T10:18:34.093Z,-63
2018-01-28T10:28:43.240Z,-64
2018-01-28T10:38:29.813Z,-63
2018-01-28T10:48:29.897Z,-58
2018-01-28T10:58:29.827Z,-56
2018-01-28T11:08:29.782Z,-57
2018-01-28T11:18:29.858Z,-57
2018-01-28T11:28:29.829Z,-59
2018-01-28T11:38:29.807Z,-58
2018-01-28T11:48:29.924Z,-58
2018-01-28T11:58:29.856Z,-57
2018-01-28T12:08:29.891Z,-57
2018-01-28T12:18:29.816Z,-59
2018-01-28T12:28:29.948Z,-56
2018-01-28T12:38:29.901Z,-58
2018-01-28T12:48:29.967Z,-57
2018-01-28T12:58:29.908Z,-57
2018-01-28T13:08:29.916Z,-58
2018-01-28T13:18:29.887Z,-57
2018-01-28T13:28:29.832Z,-58
2018-01-28T13:38:29.926Z,-58
2018-01-28T13:48:29.908Z,-58
2018-01-28T13:58:30.027Z,-57
2018-01-28T14:08:29.930Z,-59
2018-01-28T14:18:29.997Z,-57
2018-01-28T14:28:29.950Z,-58
2018-01-28T14:38:30.077Z,-58
2018-01-28T14:48:30.022Z,-59
2018-01-28T14:58:30.063Z,-55
2018-01-28T15:08:30.169Z,-56
2018-01-28T15:18:30.100Z,-57
2018-01-28T15:28:30.016Z,-58
2018-01-28T15:38:30.086Z,-59
2018-01-28T15:48:30.048Z,-57
2018-01-28T15:58:30.039Z,-59
2018-01-28T16:08:30.090Z,-55
2018-01-28T16:18:30.138Z,-59
2018-01-28T16:28:30.167Z,-60
2018-01-28T16:38:30.105Z,-58
2018-01-28T16:48:30.125Z,-57
2018-01-28T16:58:30.124Z,-58
2018-01-28T17:08:30.271Z,-59
2018-01-28T17:18:30.331Z,-59
2018-01-28T17:28:30.591Z,-56
2018-01-28T17:38:30.444Z,-62
2018-01-28T17:48:30.367Z,-62
2018-01-28T17:58:30.269Z,-60
2018-01-28T18:08:30.445Z,-64
2018-01-28T18:18:30.364Z,-60
2018-01-28T18:28:30.487Z,-61
2018-01-28T18:38:30.360Z,-60
2018-01-28T18:48:30.455Z,-62
2018-01-28T18:58:30.558Z,-63
2018-01-28T19:08:30.476Z,-66
2018-01-28T19:18:30.630Z,-56
2018-01-28T19:28:30.188Z,-56
2018-01-28T19:38:30.366Z,-57
2018-01-28T19:48:30.335Z,-57
2018-01-28T19:58:30.367Z,-57
2018-01-28T20:08:30.321Z,-57
2018-01-28T20:18:30.552Z,-57
2018-01-28T20:28:31.045Z,-57
2018-01-28T20:38:30.520Z,-57
2018-01-28T20:48:30.381Z,-56
2018-01-28T20:58:30.479Z,-57
2018-01-28T21:08:30.391Z,-54
2018-01-28T21:18:30.443Z,-56
2018-01-28T21:28:30.455Z,-58
2018-01-28T21:38:30.558Z,-57
2018-01-28T21:48:30.398Z,-56
2018-01-28T21:58:30.657Z,-55
2018-01-28T22:08:31.262Z,-53
2018-01-28T22:18:30.919Z,-56
2018-01-28T22:28:30.769Z,-57
2018-01-28T22:38:31.182Z,-55
2018-01-28T22:48:30.760Z,-57
2018-01-28T22:58:30.686Z,-58
2018-01-28T23:08:30.529Z,-56
2018-01-28T23:18:30.452Z,-57
2018-01-28T23:28:30.648Z,-58
2018-01-28T23:38:30.499Z,-54
2018-01-28T23:48:30.526Z,-57
2018-01-28T23:58:30.491Z,-56
